createdAt,value
2022-08-21T00:00:32.711Z,11.77
2022-08-21T00:03:04.752Z,8.63
2022-08-21T00:05:35.112Z,15.50
2022-08-21T00:08:03.139Z,13.40
2022-08-21T00:10:31.813Z,9.50
2022-08-21T00:12:59.874Z,10.73
2022-08-21T00:15:31.138Z,13.30
2022-08-21T00:18:00.521Z,8.97
2022-08-21T00:20:28.691Z,10.30
2022-08-21T00:22:57.353Z,11.33
2022-08-21T00:25:26.182Z,8.70
2022-08-21T00:27:54.821Z,8.70
2022-08-21T00:30:24.830Z,17.43
2022-08-21T00:32:54.619Z,9.90
2022-08-21T00:35:26.184Z,10.50
2022-08-21T00:37:54.308Z,15.33
2022-08-21T00:40:26.149Z,10.40
2022-08-21T00:42:54.184Z,12.80
2022-08-21T00:45:22.918Z,23.33
2022-08-21T00:47:51.606Z,12.17
2022-08-21T00:50:22.046Z,8.47
2022-08-21T00:52:53.100Z,9.00
2022-08-21T00:55:23.957Z,9.00
2022-08-21T00:57:54.571Z,9.57
2022-08-21T01:00:25.947Z,11.47
2022-08-21T01:02:53.918Z,9.43
2022-08-21T01:05:22.101Z,9.60
2022-08-21T01:07:51.647Z,8.20
2022-08-21T01:10:24.518Z,10.57
2022-08-21T01:12:53.511Z,12.80
2022-08-21T01:15:23.197Z,7.90
2022-08-21T01:17:52.275Z,9.10
2022-08-21T01:20:20.336Z,6.70
2022-08-21T01:22:49.577Z,8.60
2022-08-21T01:25:20.607Z,9.13
2022-08-21T01:27:48.759Z,6.60
2022-08-21T01:30:20.128Z,7.53
2022-08-21T01:32:49.865Z,7.70
2022-08-21T01:35:19.385Z,7.63
2022-08-21T01:37:47.775Z,8.53
2022-08-21T01:40:20.081Z,6.90
2022-08-21T01:42:49.553Z,6.90
2022-08-21T01:45:17.921Z,7.80
2022-08-21T01:47:46.590Z,7.00
2022-08-21T01:50:18.301Z,7.10
2022-08-21T01:52:46.359Z,7.57
2022-08-21T01:55:17.662Z,9.00
2022-08-21T01:57:46.108Z,11.17
2022-08-21T02:00:16.495Z,7.40
2022-08-21T02:02:44.505Z,9.00
2022-08-21T02:05:48.491Z,8.00
2022-08-21T02:08:16.420Z,7.70
2022-08-21T02:10:49.072Z,9.73
2022-08-21T02:13:17.177Z,10.27
2022-08-21T02:15:45.532Z,11.77
2022-08-21T02:18:13.844Z,11.53
2022-08-21T02:20:44.804Z,13.60
2022-08-21T02:23:14.155Z,10.97
2022-08-21T02:25:42.590Z,10.43
2022-08-21T02:28:14.900Z,15.70
2022-08-21T02:30:46.072Z,11.37
2022-08-21T02:33:14.865Z,9.07
2022-08-21T02:35:44.085Z,8.47
2022-08-21T02:38:15.456Z,6.67
2022-08-21T02:40:48.351Z,8.87
2022-08-21T02:43:21.440Z,6.73
2022-08-21T02:45:50.227Z,7.70
2022-08-21T02:48:23.857Z,8.97
2022-08-21T02:50:56.200Z,7.73
2022-08-21T02:53:25.660Z,9.77
2022-08-21T02:55:54.841Z,8.43
2022-08-21T02:58:26.507Z,10.20
2022-08-21T03:00:55.535Z,9.70
2022-08-21T03:03:23.577Z,11.53
2022-08-21T03:05:51.676Z,9.70
2022-08-21T03:08:20.597Z,13.97
2022-08-21T03:10:53.811Z,8.57
2022-08-21T03:13:23.622Z,11.50
2022-08-21T03:15:52.568Z,15.10
2022-08-21T03:18:20.928Z,11.43
2022-08-21T03:20:49.346Z,10.57
2022-08-21T03:23:19.599Z,9.57
2022-08-21T03:25:49.301Z,11.50
2022-08-21T03:28:24.562Z,7.60
2022-08-21T03:30:55.082Z,8.37
2022-08-21T03:33:23.869Z,9.40
2022-08-21T03:36:01.514Z,17.20
2022-08-21T03:38:31.599Z,7.27
2022-08-21T03:40:59.986Z,7.10
2022-08-21T03:43:30.889Z,8.67
2022-08-21T03:46:02.950Z,12.57
2022-08-21T03:48:31.010Z,9.93
2022-08-21T03:50:59.061Z,12.23
2022-08-21T03:53:28.555Z,11.43
2022-08-21T03:55:56.749Z,12.20
2022-08-21T03:58:27.541Z,14.93
2022-08-21T04:00:59.671Z,14.70
2022-08-21T04:03:29.925Z,16.87
2022-08-21T04:05:58.150Z,14.33
2022-08-21T04:08:26.581Z,14.50
2022-08-21T04:10:57.376Z,12.83
2022-08-21T04:13:25.502Z,12.73
2022-08-21T04:15:53.402Z,13.20
2022-08-21T04:18:21.380Z,11.07
2022-08-21T04:20:53.738Z,15.13
2022-08-21T04:23:23.580Z,13.27
2022-08-21T04:25:53.088Z,14.93
2022-08-21T04:28:21.141Z,14.60
2022-08-21T04:30:52.025Z,15.00
2022-08-21T04:33:20.053Z,22.10
2022-08-21T04:35:48.002Z,15.53
2022-08-21T04:38:17.356Z,38.40
2022-08-21T04:40:45.409Z,24.70
2022-08-21T04:43:13.965Z,20.57
2022-08-21T04:45:44.720Z,19.63
2022-08-21T04:48:14.935Z,23.50
2022-08-21T04:50:48.556Z,16.63
2022-08-21T04:53:22.606Z,18.10
2022-08-21T04:55:52.122Z,18.70
2022-08-21T04:58:22.366Z,21.13
2022-08-21T05:00:50.786Z,20.83
2022-08-21T05:03:20.173Z,18.00
2022-08-21T05:05:48.489Z,19.07
2022-08-21T05:08:21.168Z,17.50
2022-08-21T05:10:49.870Z,18.67
2022-08-21T05:13:18.090Z,15.17
2022-08-21T05:15:46.030Z,27.20
2022-08-21T05:18:14.635Z,13.93
2022-08-21T05:20:42.707Z,18.60
2022-08-21T05:23:11.898Z,21.00
2022-08-21T05:25:42.466Z,12.70
2022-08-21T05:28:10.462Z,16.33
2022-08-21T05:30:39.390Z,10.57
2022-08-21T05:33:08.470Z,13.70
2022-08-21T05:35:36.842Z,14.33
2022-08-21T05:38:05.756Z,11.07
2022-08-21T05:40:44.245Z,20.10
2022-08-21T05:43:12.411Z,16.67
2022-08-21T05:45:43.396Z,14.27
2022-08-21T05:48:13.923Z,13.23
2022-08-21T05:50:42.460Z,12.87
2022-08-21T05:53:11.489Z,12.70
2022-08-21T05:55:45.117Z,14.97
2022-08-21T05:58:16.271Z,17.03
2022-08-21T06:00:45.041Z,11.33
2022-08-21T06:03:14.376Z,16.83
2022-08-21T06:05:42.472Z,13.00
2022-08-21T06:08:10.438Z,17.07
2022-08-21T06:10:38.625Z,10.30
2022-08-21T06:13:07.497Z,11.73
2022-08-21T06:15:36.901Z,13.07
2022-08-21T06:18:05.089Z,17.67
2022-08-21T06:20:33.705Z,12.00
2022-08-21T06:23:02.231Z,13.90
2022-08-21T06:25:31.116Z,18.23
2022-08-21T06:28:03.730Z,13.70
2022-08-21T06:30:31.786Z,13.83
2022-08-21T06:33:01.260Z,12.03
2022-08-21T06:35:30.177Z,10.10
2022-08-21T06:37:58.320Z,25.53
2022-08-21T06:40:26.711Z,12.30
2022-08-21T06:42:54.816Z,16.40
2022-08-21T06:45:23.695Z,14.13
2022-08-21T06:47:51.607Z,8.70
2022-08-21T06:50:21.399Z,14.30
2022-08-21T06:52:49.603Z,13.07
2022-08-21T06:55:22.309Z,13.70
2022-08-21T06:57:52.733Z,13.93
2022-08-21T07:00:21.621Z,13.43
2022-08-21T07:02:49.650Z,13.20
2022-08-21T07:05:18.631Z,12.93
2022-08-21T07:07:48.665Z,12.73
2022-08-21T07:10:22.405Z,14.73
2022-08-21T07:12:59.147Z,11.43
2022-08-21T07:15:30.486Z,12.53
2022-08-21T07:17:59.176Z,9.63
2022-08-21T07:20:27.466Z,16.70
2022-08-21T07:22:57.664Z,14.57
2022-08-21T07:25:27.035Z,13.03
2022-08-21T07:27:55.575Z,14.80
2022-08-21T07:30:24.880Z,13.70
2022-08-21T07:32:53.597Z,12.87
2022-08-21T07:35:22.191Z,30.43
2022-08-21T07:37:50.251Z,11.70
2022-08-21T07:40:19.895Z,13.03
2022-08-21T07:42:52.826Z,14.53
2022-08-21T07:45:22.530Z,14.33
2022-08-21T07:47:53.115Z,13.73
2022-08-21T07:50:24.814Z,11.93
2022-08-21T07:52:53.565Z,12.63
2022-08-21T07:55:24.576Z,16.20
2022-08-21T07:57:52.667Z,14.70
2022-08-21T08:00:23.817Z,12.33
2022-08-21T08:02:54.115Z,13.20
2022-08-21T08:05:29.502Z,13.30
2022-08-21T08:07:58.303Z,11.80
2022-08-21T08:10:28.270Z,13.20
2022-08-21T08:12:56.718Z,15.50
2022-08-21T08:15:27.669Z,13.40
2022-08-21T08:17:56.752Z,12.63
2022-08-21T08:20:26.167Z,12.47
2022-08-21T08:22:54.859Z,13.17
2022-08-21T08:25:24.228Z,13.77
2022-08-21T08:27:53.553Z,11.87
2022-08-21T08:30:24.743Z,15.00
2022-08-21T08:32:53.124Z,11.63
2022-08-21T08:35:24.790Z,12.57
2022-08-21T08:37:53.361Z,11.77
2022-08-21T08:40:30.968Z,11.17
2022-08-21T08:43:00.771Z,10.63
2022-08-21T08:45:31.405Z,11.20
2022-08-21T08:48:02.879Z,11.77
2022-08-21T08:50:41.293Z,11.83
2022-08-21T08:53:14.735Z,12.00
2022-08-21T08:55:45.626Z,10.73
2022-08-21T08:58:22.235Z,12.30
2022-08-21T09:00:53.603Z,12.07
2022-08-21T09:03:23.337Z,11.75
2022-08-21T09:05:57.774Z,10.85
2022-08-21T09:08:50.557Z,11.65
2022-08-21T09:11:29.533Z,9.90
2022-08-21T09:14:11.084Z,10.77
2022-08-21T09:16:48.513Z,9.52
2022-08-21T09:19:35.180Z,9.23
2022-08-21T09:22:10.961Z,9.13
2022-08-21T09:24:51.934Z,10.77
2022-08-21T09:27:21.840Z,10.93
2022-08-21T09:29:58.836Z,8.38
2022-08-21T09:32:37.699Z,11.63
2022-08-21T09:35:09.805Z,11.90
2022-08-21T09:37:49.821Z,9.98
2022-08-21T09:40:25.275Z,10.90
2022-08-21T09:42:57.920Z,10.52
2022-08-21T09:45:27.463Z,10.93
2022-08-21T09:48:11.980Z,17.30
2022-08-21T09:50:41.226Z,11.23
2022-08-21T09:53:18.506Z,10.25
2022-08-21T09:56:09.516Z,8.95
2022-08-21T09:58:40.699Z,9.15
2022-08-21T10:01:15.990Z,8.68
2022-08-21T10:03:44.073Z,8.60
2022-08-21T10:06:22.933Z,10.48
2022-08-21T10:08:50.961Z,7.35
2022-08-21T10:11:26.183Z,7.72
2022-08-21T10:14:01.410Z,7.72
2022-08-21T10:16:38.830Z,8.40
2022-08-21T10:19:18.789Z,8.40
2022-08-21T10:21:59.275Z,7.65
2022-08-21T10:24:34.869Z,7.53
2022-08-21T10:27:24.102Z,6.90
2022-08-21T10:29:57.772Z,8.45
2022-08-21T10:32:54.694Z,8.13
2022-08-21T10:35:31.339Z,7.40
2022-08-21T10:38:52.543Z,7.53
2022-08-21T10:41:27.247Z,7.78
2022-08-21T10:44:05.973Z,7.40
2022-08-21T10:46:43.974Z,7.30
2022-08-21T10:49:38.599Z,6.85
2022-08-21T10:52:38.009Z,7.05
2022-08-21T10:55:16.532Z,6.55
2022-08-21T10:57:49.771Z,6.38
2022-08-21T11:00:22.454Z,7.32
2022-08-21T11:02:57.760Z,7.18
2022-08-21T11:05:35.353Z,6.50
2022-08-21T11:08:09.046Z,6.63
2022-08-21T11:10:57.631Z,7.57
2022-08-21T11:13:33.031Z,9.30
2022-08-21T11:16:08.797Z,6.88
2022-08-21T11:18:40.131Z,7.43
2022-08-21T11:21:34.677Z,5.78
2022-08-21T11:24:15.056Z,6.68
2022-08-21T11:26:51.314Z,5.72
2022-08-21T11:29:25.591Z,5.55
2022-08-21T11:35:49.648Z,4.43
2022-08-21T11:38:31.241Z,4.80
2022-08-21T11:41:24.150Z,6.55
2022-08-21T11:43:59.155Z,6.82
2022-08-21T11:46:35.899Z,5.15
2022-08-21T11:49:22.960Z,5.13
2022-08-21T11:51:55.521Z,4.90
2022-08-21T11:54:31.680Z,4.85
2022-08-21T11:57:05.095Z,4.57
2022-08-21T11:59:40.985Z,4.22
2022-08-21T12:02:14.594Z,3.90
2022-08-21T12:04:49.729Z,4.13
2022-08-21T12:07:20.015Z,3.60
2022-08-21T12:09:57.775Z,4.32
2022-08-21T12:12:29.816Z,7.63
2022-08-21T12:15:16.835Z,4.25
2022-08-21T12:17:56.389Z,4.03
2022-08-21T12:20:50.585Z,3.70
2022-08-21T12:23:34.084Z,3.95
2022-08-21T12:26:29.189Z,3.75
2022-08-21T12:29:12.646Z,3.97
2022-08-21T12:31:54.751Z,4.28
2022-08-21T12:34:28.355Z,3.78
2022-08-21T12:37:00.804Z,4.38
2022-08-21T12:39:32.892Z,4.63
2022-08-21T12:42:07.308Z,4.38
2022-08-21T12:44:40.810Z,3.42
2022-08-21T12:47:17.969Z,4.47
2022-08-21T12:49:55.524Z,4.65
2022-08-21T12:52:26.401Z,4.00
2022-08-21T12:54:55.803Z,4.15
2022-08-21T12:57:28.721Z,8.93
2022-08-21T12:59:59.234Z,4.13
2022-08-21T13:02:31.789Z,3.97
2022-08-21T13:05:04.428Z,4.10
2022-08-21T13:07:35.004Z,5.07
2022-08-21T13:10:16.148Z,4.85
2022-08-21T13:12:46.611Z,3.42
2022-08-21T13:15:16.536Z,5.10
2022-08-21T13:17:50.090Z,4.30
2022-08-21T13:20:24.228Z,4.20
2022-08-21T13:22:53.234Z,4.07
2022-08-21T13:25:27.071Z,4.10
2022-08-21T13:28:08.376Z,5.50
2022-08-21T13:30:41.079Z,5.68
2022-08-21T13:33:13.169Z,4.60
2022-08-21T13:35:50.787Z,9.50
2022-08-21T13:38:21.442Z,4.20
2022-08-21T13:40:58.966Z,4.32
2022-08-21T13:43:30.847Z,4.45
2022-08-21T13:46:00.140Z,4.00
2022-08-21T13:48:32.905Z,4.07
2022-08-21T13:51:03.380Z,3.95
2022-08-21T13:53:34.100Z,5.53
2022-08-21T13:56:26.641Z,4.90
2022-08-21T13:59:01.938Z,4.45
2022-08-21T14:01:33.620Z,4.22
2022-08-21T14:04:05.774Z,4.18
2022-08-21T14:06:39.290Z,5.30
2022-08-21T14:09:13.316Z,3.63
2022-08-21T14:11:42.137Z,4.20
2022-08-21T14:14:24.277Z,4.72
2022-08-21T14:16:57.730Z,3.95
2022-08-21T14:19:28.400Z,5.40
2022-08-21T14:21:56.710Z,4.20
2022-08-21T14:24:31.096Z,4.00
2022-08-21T14:27:05.334Z,4.00
2022-08-21T14:29:39.093Z,4.88
2022-08-21T14:32:25.230Z,4.35
2022-08-21T14:34:59.261Z,5.25
2022-08-21T14:37:28.850Z,5.18
2022-08-21T14:39:57.933Z,3.78
2022-08-21T14:42:26.996Z,3.50
2022-08-21T14:45:00.803Z,5.13
2022-08-21T14:47:29.678Z,5.40
2022-08-21T14:49:57.690Z,3.95
2022-08-21T14:52:25.700Z,4.10
2022-08-21T14:54:54.869Z,3.90
2022-08-21T14:57:22.958Z,3.53
2022-08-21T14:59:51.060Z,3.47
2022-08-21T15:02:20.587Z,4.50
2022-08-21T15:04:48.556Z,3.20
2022-08-21T15:07:16.577Z,3.15
2022-08-21T15:09:44.539Z,4.18
2022-08-21T15:12:15.130Z,3.30
2022-08-21T15:14:43.762Z,4.05
2022-08-21T15:17:13.121Z,3.75
2022-08-21T15:19:42.689Z,3.53
2022-08-21T15:22:51.427Z,3.33
2022-08-21T15:25:19.548Z,5.68
2022-08-21T15:27:47.702Z,4.10
2022-08-21T15:30:22.125Z,4.15
2022-08-21T15:32:51.673Z,3.42
2022-08-21T15:35:21.543Z,3.05
2022-08-21T15:37:49.960Z,6.20
2022-08-21T15:40:18.862Z,4.57
2022-08-21T15:42:49.476Z,3.70
2022-08-21T15:45:19.408Z,3.07
2022-08-21T15:47:50.869Z,4.05
2022-08-21T15:50:20.973Z,3.97
2022-08-21T15:52:52.481Z,4.10
2022-08-21T15:55:22.824Z,3.25
2022-08-21T15:57:57.426Z,3.72
2022-08-21T16:00:31.179Z,5.72
2022-08-21T16:03:01.502Z,3.00
2022-08-21T16:05:31.194Z,3.28
2022-08-21T16:07:59.862Z,5.32
2022-08-21T16:10:30.039Z,3.30
2022-08-21T16:13:02.973Z,4.43
2022-08-21T16:15:31.318Z,4.27
2022-08-21T16:17:59.567Z,7.38
2022-08-21T16:20:31.449Z,2.67
2022-08-21T16:23:00.098Z,3.50
2022-08-21T16:25:29.010Z,4.22
2022-08-21T16:28:01.815Z,3.10
2022-08-21T16:30:31.930Z,3.67
2022-08-21T16:33:02.096Z,3.10
2022-08-21T16:35:32.413Z,3.80
2022-08-21T16:38:03.136Z,3.67
2022-08-21T16:40:31.380Z,3.67
2022-08-21T16:42:59.641Z,5.60
2022-08-21T16:45:32.896Z,3.23
2022-08-21T16:48:04.423Z,3.88
2022-08-21T16:50:34.150Z,3.70
2022-08-21T16:53:02.271Z,4.30
2022-08-21T16:55:30.618Z,3.35
2022-08-21T16:58:01.219Z,4.53
2022-08-21T17:00:32.930Z,5.22
2022-08-21T17:03:01.329Z,4.07
2022-08-21T17:05:29.761Z,5.63
2022-08-21T17:07:59.990Z,3.37
2022-08-21T17:10:29.234Z,3.40
2022-08-21T17:13:01.668Z,3.33
2022-08-21T17:15:38.959Z,6.03
2022-08-21T17:18:11.462Z,3.67
2022-08-21T17:20:39.840Z,3.93
2022-08-21T17:23:10.327Z,4.10
2022-08-21T17:25:41.107Z,3.60
2022-08-21T17:28:13.936Z,2.90
2022-08-21T17:30:46.183Z,5.33
2022-08-21T17:33:15.100Z,4.93
2022-08-21T17:35:44.027Z,3.50
2022-08-21T17:38:14.964Z,3.93
2022-08-21T17:40:43.782Z,4.60
2022-08-21T17:43:13.723Z,4.23
2022-08-21T17:45:42.638Z,4.63
2022-08-21T17:48:11.068Z,4.63
2022-08-21T17:50:45.817Z,3.77
2022-08-21T17:53:15.908Z,3.80
2022-08-21T17:55:44.736Z,3.03
2022-08-21T17:58:15.663Z,3.83
2022-08-21T18:00:44.104Z,2.97
2022-08-21T18:03:16.130Z,4.37
2022-08-21T18:05:44.534Z,6.13
2022-08-21T18:08:14.749Z,3.90
2022-08-21T18:10:47.416Z,4.13
2022-08-21T18:13:19.116Z,3.60
2022-08-21T18:15:51.275Z,7.43
2022-08-21T18:18:19.862Z,5.70
2022-08-21T18:20:48.222Z,5.50
2022-08-21T18:23:18.982Z,4.10
2022-08-21T18:25:58.415Z,3.63
2022-08-21T18:28:27.948Z,3.43
2022-08-21T18:30:56.869Z,4.50
2022-08-21T18:33:25.269Z,4.20
2022-08-21T18:35:53.253Z,5.60
2022-08-21T18:38:24.506Z,7.80
2022-08-21T18:44:41.407Z,10.50
2022-08-21T18:47:14.425Z,4.90
2022-08-21T18:49:43.147Z,8.40
2022-08-21T18:52:20.220Z,3.73
2022-08-21T18:54:50.261Z,5.10
2022-08-21T18:57:19.574Z,8.00
2022-08-21T18:59:49.483Z,7.17
2022-08-21T19:02:17.477Z,6.67
2022-08-21T19:04:46.949Z,4.80
2022-08-21T19:07:17.395Z,6.67
2022-08-21T19:10:01.876Z,8.07
2022-08-21T19:12:37.209Z,9.80
2022-08-21T19:15:10.429Z,7.53
2022-08-21T19:17:38.716Z,6.20
2022-08-21T19:20:25.239Z,9.90
2022-08-21T19:22:56.391Z,6.73
2022-08-21T19:25:32.896Z,8.23
2022-08-21T19:28:10.954Z,7.63
2022-08-21T19:30:41.735Z,7.60
2022-08-21T19:33:11.271Z,8.07
2022-08-21T19:35:52.622Z,6.90
2022-08-21T19:38:21.193Z,5.93
2022-08-21T19:40:49.642Z,5.40
2022-08-21T19:46:08.158Z,7.90
2022-08-21T19:48:37.392Z,8.30
2022-08-21T19:51:06.216Z,5.50
2022-08-21T19:53:34.744Z,7.93
2022-08-21T19:56:02.775Z,7.93
2022-08-21T20:01:23.998Z,7.60
2022-08-21T20:03:54.083Z,7.83
2022-08-21T20:06:41.368Z,7.57
2022-08-21T20:09:10.957Z,5.90
2022-08-21T20:11:42.249Z,10.03
2022-08-21T20:14:13.732Z,6.40
2022-08-21T20:16:42.370Z,5.57
2022-08-21T20:19:11.052Z,6.77
2022-08-21T20:21:44.395Z,9.63
2022-08-21T20:24:28.303Z,9.90
2022-08-21T20:26:57.227Z,11.20
2022-08-21T20:29:31.475Z,9.90
2022-08-21T20:32:06.167Z,9.03
2022-08-21T20:34:34.232Z,9.23
2022-08-21T20:37:03.079Z,8.03
2022-08-21T20:42:15.706Z,7.07
2022-08-21T20:44:46.753Z,8.43
2022-08-21T20:47:16.673Z,8.40
2022-08-21T20:49:57.673Z,8.30
2022-08-21T20:52:27.731Z,6.97
2022-08-21T20:54:59.252Z,7.93
2022-08-21T20:57:35.365Z,8.10
2022-08-21T21:00:14.438Z,8.60
2022-08-21T21:02:53.786Z,9.17
2022-08-21T21:05:25.729Z,7.30
2022-08-21T21:08:00.895Z,10.60
2022-08-21T21:10:35.526Z,10.23
2022-08-21T21:13:09.139Z,6.97
2022-08-21T21:15:42.289Z,6.10
2022-08-21T21:18:14.377Z,6.50
2022-08-21T21:20:48.195Z,6.97
2022-08-21T21:23:22.624Z,9.03
2022-08-21T21:25:58.404Z,4.80
2022-08-21T21:28:35.088Z,8.20
2022-08-21T21:31:04.768Z,5.97
2022-08-21T21:33:32.836Z,5.50
2022-08-21T21:36:10.436Z,9.80
2022-08-21T21:38:51.715Z,5.13
2022-08-21T21:41:28.967Z,5.80
2022-08-21T21:44:11.810Z,7.57
2022-08-21T21:46:50.289Z,6.10
2022-08-21T21:49:37.190Z,4.90
2022-08-21T21:52:15.691Z,4.67
2022-08-21T21:55:18.421Z,4.47
2022-08-21T21:58:18.972Z,4.60
2022-08-21T22:01:00.649Z,6.10
2022-08-21T22:03:37.882Z,7.93
2022-08-21T22:06:11.872Z,4.60
2022-08-21T22:08:48.799Z,6.00
2022-08-21T22:11:29.401Z,4.93
2022-08-21T22:14:05.410Z,8.43
2022-08-21T22:16:35.384Z,8.00
2022-08-21T22:19:14.718Z,7.40
2022-08-21T22:21:48.032Z,5.43
2022-08-21T22:24:21.755Z,4.43
2022-08-21T22:26:53.270Z,5.40
2022-08-21T22:29:23.633Z,4.90
2022-08-21T22:32:07.167Z,6.90
2022-08-21T22:34:36.478Z,7.20
2022-08-21T22:37:10.040Z,4.80
2022-08-21T22:39:41.591Z,6.47
2022-08-21T22:42:13.572Z,7.13
2022-08-21T22:44:53.399Z,6.20
2022-08-21T22:47:24.371Z,6.00
2022-08-21T22:49:59.655Z,5.60
2022-08-21T22:52:34.440Z,6.73
2022-08-21T22:55:16.905Z,6.30
2022-08-21T22:57:46.207Z,6.63
2022-08-21T23:00:35.654Z,4.87
2022-08-21T23:03:03.767Z,7.27
2022-08-21T23:05:38.533Z,6.27
2022-08-21T23:08:24.275Z,7.07
2022-08-21T23:10:59.702Z,9.60
2022-08-21T23:13:31.502Z,7.23
2022-08-21T23:16:07.258Z,6.10
2022-08-21T23:18:51.084Z,10.50
2022-08-21T23:21:26.753Z,7.47
2022-08-21T23:24:19.540Z,7.60
2022-08-21T23:26:57.155Z,7.80
2022-08-21T23:29:32.865Z,11.83
2022-08-21T23:32:08.422Z,9.30
2022-08-21T23:34:44.789Z,6.73
2022-08-21T23:37:49.028Z,6.20
2022-08-21T23:40:47.024Z,5.47
2022-08-21T23:43:35.725Z,6.13
2022-08-21T23:46:33.425Z,6.20
2022-08-21T23:49:17.674Z,6.20
2022-08-21T23:51:56.910Z,6.20
2022-08-21T23:54:33.902Z,6.63
2022-08-21T23:57:11.764Z,5.33
2022-08-21T23:59:50.988Z,6.53
